STE.-Anne-De-Bellevue, Quebec

12:23 AM EDT on September 20, 2014 (GMT -0400)
Ste-Dorothee, Laval | Change Station
CLOSE
Current Station
Personal Weather Station
Location: Laval, QUEBEC
Elevation: 299 ft
Nearby Weather Stations

Elev 299 ft 45.52 °N, 73.82 °W | Updated 3 seconds ago

Clear
Clear
45.7 °F
Feels Like 46 °F
N
0.0
Wind Variable Wind from West
Gusts 0.7 mph

Today is forecast to be nearly the same temperature as yesterday.

Today
High -- | Low -- °F
--% Chance of Precip.
Yesterday
High -- | Low -- °F
Precip. -- in
6:40 AM 6:57 PM
Waning Crescent, 15% visible
Pressure 30.19 in
Visibility 15.0 miles
Clouds Clear
Windchill 46 °F
Dew Point 38 °F
Humidity 73%
Rainfall 0.00 in
Snow Depth Not available.
UV 0 out of 12
Pollen Not available.
Air Quality Not available.
Flu Activity Not available.
METAR CYUL 200400Z 16009KT 15SM SKC 09/03 A3019 RMK SLP223

More Conditions Fewer Conditions

Pressure 30.19 in
Visibility 15.0 miles
Clouds Clear
Windchill 46 °F
Dew Point 38 °F
Humidity 73%
Rainfall 0.00 in
Snow Depth Not available.
UV 0 out of 12
Pollen Not available.
Air Quality Not available.
Flu Activity Not available.
METAR CYUL 200400Z 16009KT 15SM SKC 09/03 A3019 RMK SLP223

More Conditions Fewer Conditions

10-Day Weather Forecast

Almanac

Astronomy

Sep. 20, 2014 Rise Set
Actual Time 6:40 AM EDT 6:57 PM EDT
Civil Twilight 6:10 AM EDT 7:26 PM EDT
Nautical Twilight 5:35 AM EDT 8:01 PM EDT
Astronomical Twilight 4:59 AM EDT 8:37 PM EDT
Moon 3:09 AM EDT 5:05 PM EDT
Length of Visible Light 13h 16m
Length of Day
12h 16m
Tomorrow will be 3m 10s shorter.
Waning Crescent, 15% of the Moon is Illuminated
Today
Waning Crescent
Sep 24
New
Oct 1
First Quarter
Oct 8
Full
Oct 15
Last Quarter

Yesterday's Extremes

Country Highs Country Lows

Community

WunderPhotos

Upload Photos

1,754,777 photos uploaded!

WunderBlogs® & News

Nearby

Snow Depth

Not available.

Earthquake Activity

City Distance Mag. Time & Date
No recent earthquake activity has been reported nearby.
Minimum magnitude displayed is 2.5.

Coastal Water Temperatures

Place Temperature
No Stations Reporting

Nearby Weather Stations